createdAt,value
2022-08-11T00:00:39.847Z,38.34
2022-08-11T00:01:39.841Z,38.04
2022-08-11T00:02:40.064Z,38.24
2022-08-11T00:03:43.478Z,38.54
2022-08-11T00:04:39.801Z,38.14
2022-08-11T00:05:39.793Z,38.34
2022-08-11T00:06:39.789Z,38.54
2022-08-11T00:07:39.773Z,38.34
2022-08-11T00:08:39.769Z,38.44
2022-08-11T00:09:40.286Z,38.24
2022-08-11T00:10:39.734Z,38.34
2022-08-11T00:11:39.727Z,38.34
2022-08-11T00:12:39.794Z,38.64
2022-08-11T00:13:39.703Z,38.44
2022-08-11T00:14:39.703Z,38.76
2022-08-11T00:15:39.697Z,38.66
2022-08-11T00:16:39.681Z,38.56
2022-08-11T00:17:39.689Z,38.66
2022-08-11T00:18:39.650Z,38.56
2022-08-11T00:20:13.392Z,38.85
2022-08-11T00:20:39.661Z,38.85
2022-08-11T00:22:04.707Z,38.66
2022-08-11T00:22:39.969Z,38.66
2022-08-11T00:23:39.602Z,38.76
2022-08-11T00:24:52.055Z,38.76
2022-08-11T00:25:39.583Z,38.96
2022-08-11T00:26:39.565Z,38.76
2022-08-11T00:27:39.556Z,39.26
2022-08-11T00:28:39.546Z,39.26
2022-08-11T00:29:51.824Z,38.76
2022-08-11T00:30:39.557Z,38.76
2022-08-11T00:31:39.514Z,38.85
2022-08-11T00:32:39.665Z,38.85
2022-08-11T00:33:44.085Z,39.06
2022-08-11T00:34:39.490Z,38.85
2022-08-11T00:35:53.664Z,38.87
2022-08-11T00:36:39.505Z,39.18
2022-08-11T00:37:39.459Z,39.07
2022-08-11T00:38:39.455Z,38.87
2022-08-11T00:39:39.471Z,39.07
2022-08-11T00:40:39.421Z,39.28
2022-08-11T00:41:39.423Z,39.18
2022-08-11T00:42:39.547Z,39.28
2022-08-11T00:43:39.407Z,39.18
2022-08-11T00:44:39.381Z,39.07
2022-08-11T00:45:39.373Z,39.18
2022-08-11T00:46:39.370Z,39.07
2022-08-11T00:47:39.370Z,38.98
2022-08-11T00:48:39.349Z,39.07
2022-08-11T00:49:39.340Z,39.07
2022-08-11T00:50:39.308Z,39.28
2022-08-11T00:52:03.962Z,39.18
2022-08-11T00:52:39.595Z,39.37
2022-08-11T00:53:39.291Z,39.18
2022-08-11T00:54:39.269Z,39.48
2022-08-11T00:55:39.270Z,39.58
2022-08-11T00:56:39.238Z,39.59
2022-08-11T00:57:39.250Z,39.69
2022-08-11T00:58:39.242Z,39.59
2022-08-11T00:59:39.251Z,39.59
2022-08-11T01:00:39.289Z,39.59
2022-08-11T01:01:39.204Z,39.50
2022-08-11T01:02:39.240Z,39.59
2022-08-11T01:03:39.176Z,39.69
2022-08-11T01:04:39.163Z,39.69
2022-08-11T01:05:39.191Z,39.59
2022-08-11T01:06:39.141Z,39.50
2022-08-11T01:08:01.838Z,39.50
2022-08-11T01:08:39.131Z,39.69
2022-08-11T01:09:39.127Z,39.69
2022-08-11T05:02:05.625Z,43.40
2022-08-11T05:03:06.636Z,43.10
2022-08-11T05:04:06.525Z,43.19
2022-08-11T05:05:06.523Z,43.30
2022-08-11T05:06:06.529Z,43.10
2022-08-11T05:07:06.527Z,42.99
2022-08-11T05:08:06.494Z,42.99
2022-08-11T05:09:06.478Z,43.10
2022-08-11T05:10:06.494Z,43.19
2022-08-11T05:11:06.504Z,43.30
2022-08-11T05:12:06.441Z,43.10
2022-08-11T05:13:06.459Z,43.10
2022-08-11T05:14:06.427Z,43.19
2022-08-11T05:15:06.417Z,43.19
2022-08-11T05:16:06.426Z,43.30
2022-08-11T05:17:06.402Z,43.19
2022-08-11T05:18:06.391Z,43.19
2022-08-11T05:19:12.396Z,43.19
2022-08-11T05:20:06.392Z,43.40
2022-08-11T05:21:06.361Z,43.10
2022-08-11T05:22:06.344Z,43.10
2022-08-11T05:23:06.330Z,43.19
2022-08-11T05:24:06.321Z,42.99
2022-08-11T05:25:06.312Z,42.99
2022-08-11T05:26:44.927Z,42.99
2022-08-11T05:27:11.310Z,42.99
2022-08-11T05:28:06.302Z,42.90
2022-08-11T05:29:19.271Z,42.99
2022-08-11T05:30:06.265Z,43.18
2022-08-11T05:31:06.269Z,42.77
2022-08-11T05:32:06.262Z,42.88
2022-08-11T05:33:06.223Z,42.77
2022-08-11T05:34:06.219Z,42.97
2022-08-11T05:35:06.202Z,42.77
2022-08-11T05:36:06.190Z,42.88
2022-08-11T05:37:25.122Z,42.97
2022-08-11T05:38:06.180Z,42.88
2022-08-11T05:39:06.165Z,42.88
2022-08-11T05:40:06.232Z,42.77
2022-08-11T05:41:06.147Z,42.88
2022-08-11T05:42:06.128Z,42.68
2022-08-11T05:43:06.161Z,42.68
2022-08-11T05:44:19.933Z,42.88
2022-08-11T05:45:15.409Z,42.77
2022-08-11T05:46:09.062Z,42.77
2022-08-11T05:47:06.086Z,42.68
2022-08-11T05:48:06.058Z,42.97
2022-08-11T05:49:06.084Z,42.68
2022-08-11T05:50:06.047Z,42.68
2022-08-11T05:51:10.370Z,42.88
2022-08-11T05:52:14.418Z,42.77
2022-08-11T05:53:09.112Z,42.68
2022-08-11T05:54:06.027Z,42.76
2022-08-11T05:55:07.216Z,42.57
2022-08-11T05:56:05.990Z,42.55
2022-08-11T05:57:05.976Z,42.46
2022-08-11T05:58:05.960Z,42.46
2022-08-11T05:59:05.958Z,42.25
2022-08-11T06:00:05.967Z,42.46
2022-08-11T06:01:06.059Z,42.46
2022-08-11T06:02:06.155Z,42.55
2022-08-11T06:03:05.910Z,42.25
2022-08-11T06:04:05.901Z,42.46
2022-08-11T06:05:05.887Z,42.25
2022-08-11T06:06:05.897Z,42.25
2022-08-11T06:07:05.875Z,42.66
2022-08-11T06:08:05.862Z,42.46
2022-08-11T06:09:05.847Z,42.25
2022-08-11T06:10:05.829Z,42.35
2022-08-11T06:11:05.815Z,42.35
2022-08-11T06:12:05.833Z,42.25
2022-08-11T06:13:05.825Z,42.13
2022-08-11T06:14:05.814Z,42.24
2022-08-11T06:15:05.788Z,42.24
2022-08-11T06:16:07.189Z,42.24
2022-08-11T06:17:05.764Z,42.24
2022-08-11T06:18:05.751Z,42.43
2022-08-11T06:19:05.746Z,42.13
2022-08-11T06:20:07.407Z,42.33
2022-08-11T06:21:05.724Z,42.54
2022-08-11T06:22:05.735Z,42.33
2022-08-11T06:23:05.717Z,42.13
2022-08-11T06:24:05.687Z,42.24
2022-08-11T06:25:05.677Z,42.33
2022-08-11T06:26:05.685Z,42.13
2022-08-11T06:27:13.828Z,42.24
2022-08-11T06:28:05.646Z,42.24
2022-08-11T06:29:05.685Z,42.03
2022-08-11T06:30:05.619Z,42.02
2022-08-11T06:31:05.607Z,42.21
2022-08-11T06:32:05.600Z,42.11
2022-08-11T06:33:05.589Z,42.21
2022-08-11T06:34:05.573Z,42.02
2022-08-11T06:35:05.577Z,42.02
2022-08-11T06:36:05.576Z,42.21
2022-08-11T06:37:05.550Z,42.11
2022-08-11T06:38:05.549Z,42.11
2022-08-11T06:39:05.542Z,42.21
2022-08-11T06:40:05.512Z,42.02
2022-08-11T06:41:05.523Z,41.82
2022-08-11T06:42:05.509Z,41.82
2022-08-11T06:43:05.515Z,41.71
2022-08-11T06:44:05.677Z,41.71
2022-08-11T06:45:05.489Z,41.80
2022-08-11T06:46:05.452Z,41.69
2022-08-11T06:47:05.440Z,41.60
2022-08-11T06:48:05.424Z,41.49
2022-08-11T06:49:05.418Z,41.39
2022-08-11T06:50:05.432Z,41.49
2022-08-11T06:51:05.410Z,41.39
2022-08-11T06:52:05.379Z,41.60
2022-08-11T06:53:05.381Z,41.69
2022-08-11T06:54:05.766Z,41.69
2022-08-11T06:55:05.359Z,41.69
2022-08-11T06:56:05.365Z,41.49
2022-08-11T06:58:05.327Z,41.60
2022-08-11T06:59:05.304Z,41.69
2022-08-11T07:00:05.304Z,41.60
2022-08-11T07:01:05.346Z,41.38
2022-08-11T07:02:05.303Z,41.88
2022-08-11T07:03:05.264Z,41.58
2022-08-11T07:04:05.251Z,41.47
2022-08-11T07:05:05.251Z,41.38
2022-08-11T07:06:05.234Z,41.58
2022-08-11T07:07:05.221Z,41.47
2022-08-11T07:08:33.938Z,41.27
2022-08-11T07:09:05.210Z,41.27
2022-08-11T07:10:05.205Z,41.27
2022-08-11T07:11:05.181Z,41.05
2022-08-11T07:12:05.194Z,41.16
2022-08-11T07:13:05.181Z,40.86
2022-08-11T07:14:05.154Z,41.36
2022-08-11T07:15:05.148Z,41.25
2022-08-11T07:16:11.702Z,41.05
2022-08-11T07:17:05.127Z,41.05
2022-08-11T07:18:05.140Z,41.05
2022-08-11T07:19:05.108Z,41.25
2022-08-11T07:20:05.107Z,41.05
2022-08-11T07:21:05.078Z,41.16
2022-08-11T07:22:05.192Z,41.05
2022-08-11T07:23:05.084Z,40.95
2022-08-11T07:24:05.071Z,40.95
2022-08-11T07:25:05.034Z,40.86
2022-08-11T07:26:05.022Z,41.03
2022-08-11T07:27:05.009Z,41.14
2022-08-11T07:28:05.007Z,40.94
2022-08-11T07:29:04.991Z,41.24
2022-08-11T07:30:05.005Z,41.03
2022-08-11T07:31:04.985Z,41.24
2022-08-11T07:32:04.970Z,41.14
2022-08-11T07:33:04.953Z,41.03
2022-08-11T07:34:10.243Z,40.94
2022-08-11T07:35:04.938Z,41.03
2022-08-11T07:36:04.962Z,40.81
2022-08-11T07:37:04.915Z,40.72
2022-08-11T07:38:07.252Z,40.62
2022-08-11T07:39:04.890Z,40.72
2022-08-11T07:40:04.966Z,40.72
2022-08-11T07:41:04.874Z,40.72
2022-08-11T07:42:04.880Z,40.62
2022-08-11T07:43:04.859Z,40.81
2022-08-11T07:44:04.841Z,40.62
2022-08-11T07:45:04.826Z,40.42
2022-08-11T07:46:04.814Z,40.22
2022-08-11T07:47:04.805Z,40.70
2022-08-11T07:48:04.808Z,40.30
2022-08-11T07:49:04.780Z,40.50
2022-08-11T07:50:04.768Z,40.30
2022-08-11T07:51:04.766Z,40.10
2022-08-11T07:52:04.744Z,40.30
2022-08-11T07:53:04.774Z,40.30
2022-08-11T07:54:16.558Z,40.30
2022-08-11T07:55:04.727Z,40.59
2022-08-11T07:56:04.712Z,40.70
2022-08-11T07:57:08.893Z,40.08
2022-08-11T07:58:16.191Z,40.18
2022-08-11T07:59:08.273Z,40.18
2022-08-11T08:00:05.176Z,39.88
2022-08-11T08:01:10.142Z,39.98
2022-08-11T08:02:04.734Z,39.78
2022-08-11T08:03:04.652Z,40.18
2022-08-11T08:04:04.628Z,39.88
2022-08-11T08:05:04.611Z,39.88
2022-08-11T08:06:04.608Z,39.58
2022-08-11T08:07:04.602Z,39.88
2022-08-11T08:08:04.582Z,39.36
2022-08-11T08:09:04.586Z,39.16
2022-08-11T08:10:04.576Z,39.16
2022-08-11T08:11:04.553Z,39.26
2022-08-11T08:12:04.532Z,39.26
2022-08-11T08:13:04.522Z,39.36
2022-08-11T08:14:04.525Z,39.56
2022-08-11T08:15:04.527Z,39.26
2022-08-11T08:16:04.525Z,39.36
2022-08-11T08:17:04.480Z,39.46
2022-08-11T08:18:10.098Z,39.46
2022-08-11T08:19:04.470Z,39.16
2022-08-11T08:20:04.462Z,39.25
2022-08-11T08:21:04.448Z,39.04
2022-08-11T08:22:11.970Z,39.34
2022-08-11T08:23:04.443Z,39.44
2022-08-11T08:24:04.416Z,39.44
2022-08-11T08:25:04.397Z,39.25
2022-08-11T08:26:04.449Z,39.04
2022-08-11T08:27:04.375Z,38.82
2022-08-11T08:28:04.371Z,38.93
2022-08-11T08:29:04.386Z,38.82
2022-08-11T08:30:04.347Z,39.03
2022-08-11T08:31:04.334Z,39.12
2022-08-11T08:32:04.332Z,38.93
2022-08-11T08:33:04.314Z,38.73
2022-08-11T08:34:04.311Z,38.63
2022-08-11T08:35:04.302Z,38.93
2022-08-11T08:36:04.301Z,38.82
2022-08-11T08:37:16.075Z,38.91
2022-08-11T08:38:04.273Z,38.41
2022-08-11T08:39:04.257Z,38.31
2022-08-11T08:40:04.242Z,38.21
2022-08-11T08:41:04.231Z,38.21
2022-08-11T08:42:04.237Z,38.11
2022-08-11T08:43:04.232Z,38.21
2022-08-11T08:44:27.817Z,38.11
2022-08-11T08:45:04.193Z,38.11
2022-08-11T08:46:04.207Z,38.01
2022-08-11T08:47:04.166Z,37.92
2022-08-11T08:48:04.155Z,37.79
2022-08-11T08:49:04.172Z,37.90
2022-08-11T08:50:04.138Z,38.20
2022-08-11T08:51:04.119Z,37.90
2022-08-11T08:52:26.496Z,37.79
2022-08-11T08:53:04.118Z,37.70
2022-08-11T08:54:04.091Z,37.70
2022-08-11T08:55:04.104Z,37.79
2022-08-11T08:56:04.075Z,37.58
2022-08-11T08:57:04.080Z,37.28
2022-08-11T08:58:04.075Z,37.18
2022-08-11T08:59:04.047Z,37.38
2022-08-11T09:00:04.028Z,37.48
2022-08-11T09:01:04.070Z,37.58
2022-08-11T09:02:04.043Z,37.58
2022-08-11T09:03:22.815Z,37.48
2022-08-11T09:04:10.770Z,37.38
2022-08-11T09:05:04.225Z,37.38
2022-08-11T09:06:03.969Z,37.28
2022-08-11T09:07:03.955Z,37.18
2022-08-11T09:08:03.984Z,37.06
2022-08-11T09:09:03.941Z,37.06
2022-08-11T09:10:03.926Z,36.96
2022-08-11T09:11:03.918Z,36.87
2022-08-11T09:12:03.911Z,36.77
2022-08-11T09:13:03.910Z,36.57
2022-08-11T09:14:05.875Z,36.47
2022-08-11T09:15:03.870Z,36.25
2022-08-11T09:16:03.874Z,36.25
2022-08-11T09:17:03.849Z,36.35
2022-08-11T09:18:03.875Z,36.55
2022-08-11T09:19:03.843Z,36.35
2022-08-11T09:20:03.844Z,36.35
2022-08-11T09:21:03.813Z,36.25
2022-08-11T09:22:03.809Z,36.25
2022-08-11T09:23:54.582Z,36.35
2022-08-11T09:24:19.187Z,36.25
2022-08-11T09:25:03.774Z,36.15
2022-08-11T09:26:03.775Z,36.25
2022-08-11T09:27:03.743Z,36.65
2022-08-11T09:28:03.740Z,36.35
2022-08-11T09:29:03.740Z,36.25
2022-08-11T09:30:03.720Z,36.15
2022-08-11T09:31:03.700Z,36.25
2022-08-11T09:32:03.747Z,36.15
2022-08-11T09:33:03.705Z,36.55
2022-08-11T09:34:03.684Z,36.05
2022-08-11T09:35:03.657Z,35.54
2022-08-11T09:36:03.654Z,35.14
2022-08-11T09:37:03.638Z,35.34
2022-08-11T09:38:03.820Z,35.54
2022-08-11T09:39:03.630Z,35.44
2022-08-11T09:40:03.615Z,35.54
2022-08-11T09:41:03.603Z,34.74
2022-08-11T09:42:04.290Z,34.55
2022-08-11T09:43:03.592Z,34.13
2022-08-11T09:44:04.521Z,34.23
2022-08-11T09:45:03.568Z,33.83
2022-08-11T09:46:03.555Z,33.54
2022-08-11T09:47:03.538Z,33.54
2022-08-11T09:48:03.528Z,33.73
2022-08-11T09:49:03.534Z,33.62
2022-08-11T09:50:03.538Z,33.82
2022-08-11T09:51:03.500Z,33.92
2022-08-11T09:52:05.355Z,33.52
2022-08-11T09:53:37.319Z,33.62
2022-08-11T09:54:04.171Z,33.62
2022-08-11T09:55:03.482Z,33.42
2022-08-11T09:56:03.449Z,33.42
2022-08-11T09:57:05.457Z,33.33
2022-08-11T09:58:03.538Z,33.42
2022-08-11T09:59:03.412Z,33.52
2022-08-11T10:00:12.340Z,33.42
2022-08-11T10:01:03.520Z,33.72
2022-08-11T10:02:03.575Z,32.82
2022-08-11T10:03:03.371Z,32.42
2022-08-11T10:04:03.364Z,32.12
2022-08-11T10:05:03.341Z,32.02
2022-08-11T10:06:07.774Z,32.31
2022-08-11T10:07:04.714Z,32.21
2022-08-11T10:08:03.318Z,32.31
2022-08-11T10:09:03.309Z,31.90
2022-08-11T10:10:03.309Z,32.00
2022-08-11T10:11:03.283Z,32.00
2022-08-11T10:12:03.305Z,32.00
2022-08-11T10:13:03.261Z,31.90
2022-08-11T10:14:33.922Z,32.20
2022-08-11T10:15:03.247Z,31.69
2022-08-11T10:16:16.293Z,31.88
2022-08-11T10:17:03.246Z,31.20
2022-08-11T10:18:03.220Z,31.39
2022-08-11T10:19:03.199Z,31.29
2022-08-11T10:20:05.182Z,31.49
2022-08-11T10:21:03.188Z,31.29
2022-08-11T10:22:03.174Z,31.29
2022-08-11T10:23:03.212Z,31.49
2022-08-11T10:24:05.750Z,30.80
2022-08-11T10:25:03.156Z,31.10
2022-08-11T10:26:03.135Z,30.98
2022-08-11T10:28:30.674Z,31.18
2022-08-11T10:29:15.608Z,30.58
2022-08-11T10:30:15.298Z,30.68
2022-08-11T10:31:15.270Z,30.58
2022-08-11T10:32:15.249Z,30.37
2022-08-11T10:33:36.930Z,30.18
2022-08-11T10:34:15.249Z,30.27
2022-08-11T10:35:15.222Z,29.97
2022-08-11T10:36:16.714Z,29.97
2022-08-11T10:37:15.382Z,29.78
2022-08-11T10:38:15.195Z,29.88
2022-08-11T10:39:15.205Z,29.88
2022-08-11T10:40:15.181Z,29.96
2022-08-11T10:41:15.182Z,30.18
2022-08-11T10:42:30.005Z,30.06
2022-08-11T10:44:01.408Z,30.36
2022-08-11T10:44:15.131Z,30.46
2022-08-11T10:45:15.118Z,30.55
2022-08-11T10:46:15.097Z,30.65
2022-08-11T10:47:15.089Z,30.55
2022-08-11T10:48:15.707Z,30.46
2022-08-11T10:49:15.075Z,30.26
2022-08-11T10:50:15.054Z,30.36
2022-08-11T10:51:15.064Z,30.44
2022-08-11T10:52:15.064Z,30.15
2022-08-11T10:53:15.047Z,29.95
2022-08-11T10:54:15.023Z,29.85
2022-08-11T10:55:15.012Z,30.05
2022-08-11T10:56:14.992Z,29.65
2022-08-11T10:57:14.990Z,29.64
2022-08-11T10:58:14.998Z,29.34
2022-08-11T10:59:15.542Z,29.54
2022-08-11T11:00:14.954Z,29.34
2022-08-11T11:01:15.050Z,29.54
2022-08-11T11:02:14.970Z,29.74
2022-08-11T11:03:22.869Z,29.34
2022-08-11T11:04:14.933Z,29.54
2022-08-11T11:05:14.900Z,29.54
2022-08-11T11:06:28.411Z,29.33
2022-08-11T11:07:14.882Z,29.62
2022-08-11T11:08:14.875Z,29.33
2022-08-11T11:09:14.877Z,29.33
2022-08-11T11:10:14.960Z,29.13
2022-08-11T11:11:18.264Z,29.33
2022-08-11T11:12:14.843Z,29.13
2022-08-11T11:13:14.813Z,29.33
2022-08-11T11:14:14.855Z,29.43
2022-08-11T11:15:17.538Z,29.23
2022-08-11T11:16:14.791Z,28.92
2022-08-11T11:17:14.775Z,28.52
2022-08-11T11:18:14.762Z,28.23
2022-08-11T11:19:14.754Z,28.03
2022-08-11T11:20:37.003Z,28.41
2022-08-11T11:21:14.745Z,28.31
2022-08-11T11:22:14.725Z,28.80
2022-08-11T11:23:14.714Z,28.51
2022-08-11T11:24:20.713Z,27.70
2022-08-11T11:25:14.688Z,27.11
2022-08-11T11:26:14.707Z,26.53
2022-08-11T11:27:14.669Z,27.11
2022-08-11T11:28:14.661Z,27.20
2022-08-11T11:29:14.648Z,26.71
2022-08-11T11:30:14.642Z,26.51
2022-08-11T11:31:15.792Z,26.31
2022-08-11T11:32:14.648Z,26.70
2022-08-11T11:33:14.610Z,26.59
2022-08-11T11:34:14.599Z,26.99
2022-08-11T11:35:14.589Z,26.50
2022-08-11T11:36:14.582Z,27.09
2022-08-11T11:37:14.595Z,26.99
2022-08-11T11:38:14.565Z,26.48
2022-08-11T11:39:14.592Z,26.78
2022-08-11T11:40:14.542Z,26.29
2022-08-11T11:41:14.554Z,25.89
2022-08-11T11:42:14.513Z,26.29
2022-08-11T11:43:14.527Z,25.78
2022-08-11T11:44:14.500Z,25.88
2022-08-11T11:45:23.776Z,26.77
2022-08-11T11:46:14.485Z,25.49
2022-08-11T11:47:14.473Z,25.87
2022-08-11T11:48:14.461Z,25.87
2022-08-11T11:49:17.051Z,25.48
2022-08-11T11:50:14.435Z,25.77
2022-08-11T11:51:14.419Z,25.87
2022-08-11T11:52:14.419Z,26.05
2022-08-11T11:53:14.424Z,25.85
2022-08-11T11:54:14.851Z,25.85
2022-08-11T11:55:14.453Z,25.56
2022-08-11T11:56:14.379Z,24.96
2022-08-11T11:57:14.367Z,25.05
2022-08-11T11:58:16.014Z,25.26
2022-08-11T11:59:14.635Z,25.24
2022-08-11T12:00:14.336Z,25.73
2022-08-11T12:01:14.348Z,24.95
2022-08-11T12:02:14.318Z,25.34
2022-08-11T12:03:14.415Z,24.46
2022-08-11T12:04:14.306Z,24.15
2022-08-11T12:05:14.280Z,24.05
2022-08-11T12:06:14.475Z,24.35
2022-08-11T12:07:14.278Z,24.74
2022-08-11T12:08:14.291Z,24.14
2022-08-11T12:09:14.241Z,24.82
2022-08-11T12:10:14.231Z,24.14
2022-08-11T12:11:14.217Z,24.04
2022-08-11T12:12:14.220Z,24.53
2022-08-11T12:13:14.202Z,23.65
2022-08-11T12:14:14.222Z,23.63
2022-08-11T12:15:14.206Z,23.05
2022-08-11T12:16:33.391Z,23.24
2022-08-11T12:17:14.175Z,23.24
2022-08-11T12:18:14.204Z,23.13
2022-08-11T12:19:14.147Z,23.03
2022-08-11T12:20:31.515Z,22.74
2022-08-11T12:21:14.134Z,23.13
2022-08-11T12:22:14.123Z,22.35
2022-08-11T12:23:14.712Z,22.74
2022-08-11T12:24:14.112Z,22.34
2022-08-11T12:25:14.068Z,22.44
2022-08-11T12:26:26.791Z,22.44
2022-08-11T12:27:16.049Z,22.44
2022-08-11T12:28:14.058Z,22.63
2022-08-11T12:29:14.038Z,23.31
2022-08-11T12:30:14.075Z,22.33
2022-08-11T12:31:14.015Z,22.23
2022-08-11T12:32:14.014Z,22.52
2022-08-11T12:33:13.995Z,21.74
2022-08-11T12:34:14.005Z,21.74
2022-08-11T12:35:13.991Z,22.12
2022-08-11T12:36:14.017Z,22.41
2022-08-11T12:37:14.094Z,21.44
2022-08-11T12:38:13.958Z,21.44
2022-08-11T12:39:23.206Z,21.83
2022-08-11T12:40:43.256Z,21.53
2022-08-11T12:41:18.641Z,21.63
2022-08-11T12:42:13.913Z,21.53
2022-08-11T12:43:21.205Z,21.42
2022-08-11T12:44:13.913Z,21.33
2022-08-11T12:45:22.318Z,21.62
2022-08-11T12:46:13.878Z,21.92
2022-08-11T12:47:13.871Z,21.42
2022-08-11T12:49:00.001Z,20.73
2022-08-11T12:49:13.851Z,21.22
2022-08-11T12:50:22.688Z,21.23
2022-08-11T12:51:13.829Z,20.53
2022-08-11T12:52:15.772Z,20.43
2022-08-11T12:53:13.851Z,20.53
2022-08-11T12:54:13.787Z,20.53
2022-08-11T12:55:14.138Z,20.83
2022-08-11T12:56:13.778Z,20.63
2022-08-11T12:57:13.800Z,20.63
2022-08-11T12:58:13.770Z,20.93
2022-08-11T12:59:13.733Z,20.63
2022-08-11T13:00:13.728Z,20.62
2022-08-11T13:01:13.766Z,20.23
2022-08-11T13:02:13.718Z,20.43
2022-08-11T13:03:13.753Z,19.94
2022-08-11T13:04:13.779Z,20.14
2022-08-11T13:05:13.672Z,20.32
2022-08-11T13:06:13.689Z,20.32
2022-08-11T13:07:13.665Z,20.22
2022-08-11T13:08:13.647Z,19.93
2022-08-11T13:09:13.654Z,20.12
2022-08-11T13:10:16.813Z,20.31
2022-08-11T13:11:13.611Z,19.92
2022-08-11T13:12:13.630Z,19.82
2022-08-11T13:13:52.763Z,19.53
2022-08-11T13:14:15.174Z,19.24
2022-08-11T13:15:13.577Z,19.53
2022-08-11T13:16:13.554Z,19.53
2022-08-11T13:17:13.594Z,19.34
2022-08-11T13:18:13.541Z,19.63
2022-08-11T13:19:13.532Z,19.04
2022-08-11T13:20:13.528Z,19.14
2022-08-11T13:21:20.561Z,18.95
2022-08-11T13:22:13.515Z,19.43
2022-08-11T13:23:13.510Z,19.24
2022-08-11T13:24:13.569Z,19.03
2022-08-11T13:25:15.030Z,18.74
2022-08-11T13:26:13.457Z,19.03
2022-08-11T13:27:13.460Z,18.84
2022-08-11T13:28:13.447Z,18.93
2022-08-11T13:29:13.437Z,19.23
2022-08-11T13:30:13.459Z,19.13
2022-08-11T13:31:13.417Z,18.74
2022-08-11T13:32:13.413Z,18.54
2022-08-11T13:33:13.405Z,18.63
2022-08-11T13:34:13.421Z,18.63
2022-08-11T13:35:13.371Z,18.92
2022-08-11T13:36:13.407Z,18.73
2022-08-11T13:37:13.359Z,19.12
2022-08-11T13:38:19.381Z,18.54
2022-08-11T13:39:13.465Z,18.91
2022-08-11T13:40:13.318Z,18.33
2022-08-11T13:41:13.329Z,18.34
2022-08-11T13:42:13.324Z,17.94
2022-08-11T13:43:13.288Z,18.04
2022-08-11T13:44:15.932Z,18.23
2022-08-11T13:45:13.299Z,18.04
2022-08-11T13:46:13.274Z,18.62
2022-08-11T13:47:13.255Z,18.52
2022-08-11T13:48:13.262Z,18.32
2022-08-11T13:49:13.235Z,18.13
2022-08-11T13:50:13.568Z,18.23
2022-08-11T13:51:13.235Z,18.13
2022-08-11T13:52:13.223Z,18.23
2022-08-11T13:53:13.199Z,18.32
2022-08-11T13:54:13.189Z,18.13
2022-08-11T13:55:45.128Z,18.32
2022-08-11T13:56:13.176Z,17.74
2022-08-11T13:57:13.777Z,17.74
2022-08-11T13:58:20.551Z,17.74
2022-08-11T13:59:13.147Z,18.03
2022-08-11T14:00:25.000Z,17.93
2022-08-11T14:02:20.369Z,17.93
2022-08-11T14:02:31.191Z,18.32
2022-08-11T14:03:13.146Z,18.42
2022-08-11T14:04:29.815Z,18.23
2022-08-11T14:05:13.091Z,18.32
2022-08-11T14:06:13.076Z,17.92
2022-08-11T14:07:13.055Z,18.02
2022-08-11T14:08:37.443Z,18.21
2022-08-11T14:09:13.046Z,18.21
2022-08-11T14:10:13.344Z,18.11
2022-08-11T14:12:19.847Z,18.01
2022-08-11T14:12:27.794Z,17.82
2022-08-11T14:13:13.005Z,17.52
2022-08-11T14:14:12.995Z,17.33
2022-08-11T14:15:12.977Z,17.72
2022-08-11T14:16:12.984Z,17.82
2022-08-11T14:17:12.965Z,18.01
2022-08-11T14:18:12.968Z,17.72
2022-08-11T14:19:12.935Z,17.90
2022-08-11T14:20:38.199Z,17.80
2022-08-11T14:21:12.924Z,17.32
2022-08-11T14:22:12.916Z,17.32
2022-08-11T14:23:12.918Z,17.13
2022-08-11T14:24:13.093Z,17.12
2022-08-11T14:25:12.879Z,17.70
2022-08-11T14:26:12.873Z,16.93
2022-08-11T14:28:29.480Z,16.83
2022-08-11T14:28:44.513Z,16.53
2022-08-11T14:29:12.916Z,17.01
2022-08-11T14:30:12.846Z,16.43
2022-08-11T14:31:12.826Z,16.82
2022-08-11T14:32:12.815Z,17.01
2022-08-11T14:33:17.047Z,16.81
2022-08-11T14:34:12.801Z,16.82
2022-08-11T14:35:12.794Z,16.62
2022-08-11T14:36:12.809Z,16.72
2022-08-11T14:37:12.771Z,16.81
2022-08-11T14:38:12.753Z,17.20
2022-08-11T14:39:13.184Z,17.00
2022-08-11T14:40:12.756Z,16.61
2022-08-11T14:41:12.786Z,16.61
2022-08-11T14:42:13.336Z,16.61
2022-08-11T14:43:12.701Z,16.41
2022-08-11T14:44:14.785Z,16.11
2022-08-11T14:45:12.700Z,16.31
2022-08-11T14:46:12.705Z,16.11
2022-08-11T14:47:24.046Z,16.60
2022-08-11T14:48:12.671Z,15.72
2022-08-11T14:49:12.674Z,16.31
2022-08-11T14:50:12.873Z,16.02
2022-08-11T14:51:12.636Z,15.44
2022-08-11T14:52:12.681Z,15.62
2022-08-11T14:53:16.071Z,15.92
2022-08-11T14:54:12.629Z,15.92
2022-08-11T14:55:12.602Z,16.11
2022-08-11T14:56:12.754Z,15.72
2022-08-11T14:57:12.585Z,15.81
2022-08-11T14:58:12.569Z,15.91
2022-08-11T14:59:12.583Z,16.09
2022-08-11T15:00:12.537Z,15.61
2022-08-11T15:01:12.608Z,15.70
2022-08-11T15:02:12.527Z,14.73
2022-08-11T15:03:13.496Z,15.11
2022-08-11T15:04:34.621Z,14.73
2022-08-11T15:05:12.540Z,14.81
2022-08-11T15:06:12.483Z,15.01
2022-08-11T15:07:17.090Z,14.72
2022-08-11T15:08:12.479Z,14.91
2022-08-11T15:09:12.470Z,14.81
2022-08-11T15:10:13.739Z,15.48
2022-08-11T15:11:12.483Z,15.00
2022-08-11T15:12:32.271Z,14.99
2022-08-11T15:13:12.434Z,14.90
2022-08-11T15:14:12.422Z,14.89
2022-08-11T15:15:12.431Z,14.79
2022-08-11T15:16:12.395Z,14.78
2022-08-11T15:17:12.417Z,14.50
2022-08-11T15:18:12.374Z,14.59
2022-08-11T15:19:12.365Z,14.68
2022-08-11T15:20:12.355Z,14.09
2022-08-11T15:21:12.364Z,14.39
2022-08-11T15:22:12.372Z,14.19
2022-08-11T15:23:12.362Z,14.29
2022-08-11T15:24:12.322Z,14.18
2022-08-11T15:25:12.326Z,14.09
2022-08-11T15:26:12.301Z,13.89
2022-08-11T15:27:12.286Z,14.08
2022-08-11T15:28:12.309Z,13.98
2022-08-11T15:29:12.273Z,13.98
2022-08-11T15:30:20.209Z,13.88
2022-08-11T15:31:12.261Z,13.68
2022-08-11T15:32:12.238Z,13.29
2022-08-11T15:33:12.235Z,13.49
2022-08-11T15:34:12.249Z,13.39
2022-08-11T15:35:12.212Z,13.20
2022-08-11T15:36:12.212Z,13.39
2022-08-11T15:37:12.198Z,13.29
2022-08-11T15:38:12.193Z,12.91
2022-08-11T15:39:19.305Z,13.59
2022-08-11T15:40:31.970Z,13.30
2022-08-11T15:41:12.237Z,13.40
2022-08-11T15:42:12.137Z,13.50
2022-08-11T15:43:12.826Z,13.31
2022-08-11T15:44:12.126Z,13.51
2022-08-11T15:45:12.122Z,13.51
2022-08-11T15:46:12.121Z,13.62
2022-08-11T15:47:12.125Z,14.10
2022-08-11T15:48:12.086Z,14.11
2022-08-11T15:49:12.090Z,14.11
2022-08-11T15:50:13.848Z,14.12
2022-08-11T15:51:12.071Z,14.32
2022-08-11T15:52:12.052Z,14.51
2022-08-11T15:53:12.064Z,14.71
2022-08-11T15:54:12.039Z,15.01
2022-08-11T15:55:12.027Z,15.11
2022-08-11T15:56:12.014Z,15.22
2022-08-11T15:57:12.021Z,15.31
2022-08-11T15:58:12.012Z,15.52
2022-08-11T15:59:41.191Z,15.52
2022-08-11T16:00:11.982Z,15.62
2022-08-11T16:01:11.966Z,15.34
2022-08-11T16:02:12.073Z,15.72
2022-08-11T16:03:15.497Z,15.83
2022-08-11T16:04:13.237Z,15.92
2022-08-11T16:05:11.931Z,16.02
2022-08-11T16:06:11.917Z,16.03
2022-08-11T16:07:12.837Z,16.13
2022-08-11T16:08:13.246Z,16.14
2022-08-11T16:09:18.480Z,16.14
2022-08-11T16:10:14.022Z,16.14
2022-08-11T16:11:11.897Z,16.34
2022-08-11T16:12:11.863Z,16.54
2022-08-11T16:13:11.876Z,16.64
2022-08-11T16:14:11.896Z,16.74
2022-08-11T16:15:11.828Z,17.03
2022-08-11T16:16:11.851Z,17.14
2022-08-11T16:17:11.822Z,17.24
2022-08-11T16:18:11.800Z,17.24
2022-08-11T16:19:11.778Z,17.53
2022-08-11T16:20:11.799Z,17.54
2022-08-11T16:21:11.781Z,17.54
2022-08-11T16:22:11.762Z,17.54
2022-08-11T16:23:11.760Z,17.83
2022-08-11T16:27:01.925Z,17.74
2022-08-11T16:27:14.515Z,17.93
2022-08-11T16:27:32.124Z,18.04
2022-08-11T16:28:19.470Z,18.04
2022-08-11T16:29:19.457Z,18.15
2022-08-11T16:30:19.458Z,18.24
2022-08-11T16:31:19.433Z,18.24
2022-08-11T16:32:19.449Z,18.44
2022-08-11T16:33:48.287Z,18.54
2022-08-11T16:34:22.348Z,18.35
2022-08-11T16:35:19.424Z,18.55
2022-08-11T16:36:19.390Z,18.85
2022-08-11T16:37:19.364Z,18.95
2022-08-11T16:38:19.382Z,18.95
2022-08-11T16:39:19.413Z,18.85
2022-08-11T16:40:19.353Z,18.85
2022-08-11T16:41:19.345Z,18.95
2022-08-11T16:43:06.149Z,18.85
2022-08-11T16:43:19.308Z,19.15
2022-08-11T16:44:19.314Z,19.15
2022-08-11T16:45:19.344Z,19.24
2022-08-11T16:46:19.273Z,19.05
2022-08-11T16:48:33.209Z,19.35